• Join FlightAware (Why Join?)
  • Login
  • US Flag 
02:05PM EDT


 

Airport Tracker/Info


-or-


 

Live Flight TrackerFlight Track Log ✈ N677MC ✈ 19-Apr-2012 ✈ KORD - KATL

Flight Track Log - Related Links

Times and Time Zones

All times are in EDT time to prevent confusion due to time zone crossing. See the N677MC flight status page for this flight to view local times or setup timezone preferences in your user account.

Time Position Orientation Groundspeed Altitude Reporting Facility
EDT Latitude Longitude Course Direction KTS MPH feet Rate Location/Type
08:40PM 41.9833 -87.8667 124° Southeast 168 193 1,900  Level Chicago TRACON
08:41PM 41.9500 -87.8000 174° South 205 236 3,500 1,320 Climbing Chicago TRACON
08:43PM 41.8208 -87.7811 171° South 226 260 6,000 1,680 Climbing Chicago Center
08:44PM 41.7517 -87.7661 169° South 239 275 8,800 2,160 Climbing Chicago Center
08:46PM 41.6011 -87.7256 176° South 269 310 12,600 1,680 Climbing Chicago Center
08:47PM 41.5072 -87.7167 178° South 300 345 14,000 1,380 Climbing Chicago Center
08:48PM 41.4069 -87.7111 182° South 337 388 15,400 1,440 Climbing Chicago Center
08:49PM 41.3008 -87.7164 192° South 365 420 16,900 1,500 Climbing Chicago Center
08:50PM 41.1928 -87.7467 171° South 388 447 18,400 1,620 Climbing Chicago Center
08:51PM 41.0756 -87.7219 167° South 419 482 20,200 1,680 Climbing Chicago Center
08:52PM 40.9583 -87.6864 167° South 434 499 21,800 1,620 Climbing Chicago Center
08:53PM 40.8411 -87.6511 174° South 434 499 23,500 1,620 Climbing Chicago Center
08:55PM 40.5631 -87.6144 174° South 442 509 27,300 1,560 Climbing Indianapolis Center
08:56PM 40.4469 -87.5994 160° South 436 502 28,800 840 Climbing Indianapolis Center
08:57PM 40.3319 -87.5436 157° South 441 507 29,000 60 Climbing Indianapolis Center
08:58PM 40.2092 -87.4742 160° South 465 535 29,000  Level Indianapolis Center
08:59PM 40.0861 -87.4156 166° South 474 545 29,000  Level Indianapolis Center
09:00PM 39.9581 -87.3733 164° South 468 539 29,000  Level Indianapolis Center
09:01PM 39.8325 -87.3258 166° South 474 545 29,000  Level Indianapolis Center
09:02PM 39.7003 -87.2839 166° South 483 556 29,000  Level Indianapolis Center
09:03PM 39.5622 -87.2389 166° South 478 550 29,000  Level Indianapolis Center
09:04PM 39.4319 -87.1972 167° South 485 558 29,000  Level Indianapolis Center
09:05PM 39.3019 -87.1583 167° South 485 558 29,000  Level Indianapolis Center
09:06PM 39.1694 -87.1194 167° South 485 558 29,000  Level Indianapolis Center
09:07PM 39.0600 -87.0872 164° South 478 550 29,000  Level Indianapolis Center
09:08PM 38.9300 -87.0408 163° South 478 550 29,000  Level Indianapolis Center
09:09PM 38.7897 -86.9861 162° South 478 550 29,000  Level Indianapolis Center
09:10PM 38.6578 -86.9319 161° South 483 556 29,000  Level Indianapolis Center
09:11PM 38.5322 -86.8756 162° South 488 562 29,000  Level Indianapolis Center
09:12PM 38.4022 -86.8219 163° South 488 562 29,000  Level Indianapolis Center
09:13PM 38.2722 -86.7711 165° South 493 567 29,000  Level Indianapolis Center
09:14PM 38.1419 -86.7258 163° South 493 567 29,000  Level Indianapolis Center
09:15PM 38.0264 -86.6814 165° South 488 562 29,000  Level Indianapolis Center
09:16PM 37.8961 -86.6364 164° South 488 562 29,000  Level Indianapolis Center
09:19PM 37.5725 -86.5186 165° South 481 554 29,000  Level Memphis Center
09:20PM 37.4419 -86.4753 164° South 481 554 29,000  Level Memphis Center
09:21PM 37.3114 -86.4297 165° South 481 554 29,000  Level Memphis Center
09:22PM 37.1808 -86.3867 174° South 481 554 29,000  Level Memphis Center
09:23PM 37.0511 -86.3697 186° South 476 548 29,000  Level Memphis Center
09:24PM 36.9183 -86.3867 185° South 476 548 29,000  Level Memphis Center
09:25PM 36.7978 -86.4006 182° South 476 548 29,000  Level Memphis Center
09:26PM 36.6647 -86.4069 183° South 481 554 29,000  Level Memphis Center
09:27PM 36.5317 -86.4161 180° South 481 554 29,000  Level Memphis Center
09:28PM 36.3983 -86.4175 178° South 481 554 29,000  Level Memphis Center
09:29PM 36.2500 -86.4117 179° South 486 559 29,000  Level Memphis Center
09:30PM 36.1144 -86.4081 178° South 486 559 29,000  Level Memphis Center
09:31PM 35.9808 -86.4017 178° South 486 559 29,000  Level Memphis Center
09:32PM 35.8450 -86.3953 163° South 486 559 29,000 -60 Level Memphis Center
09:34PM 35.5933 -86.2989 139° Southeast 468 539 28,900  Descending Atlanta Center
09:35PM 35.4867 -86.1864 144° Southeast 489 563 29,000 -120 Climbing Atlanta Center
09:36PM 35.3778 -86.0892 146° Southeast 494 568 28,700 -900 Descending Atlanta Center
09:37PM 35.2647 -85.9950 144° Southeast 499 574 27,200 -1,680 Descending Atlanta Center
09:38PM 35.1658 -85.9061 144° Southeast 474 545 25,400 -1,560 Descending Atlanta Center
09:39PM 35.0711 -85.8228 145° Southeast 443 510 24,100 -720 Descending Atlanta Center
09:40PM 34.9761 -85.7422 148° Southeast 424 488 24,000 -60 Descending Atlanta Center
09:41PM 34.8731 -85.6642 149° Southeast 419 482 24,000  Level Atlanta Center
09:42PM 34.7697 -85.5889 150° Southeast 432 497 24,000  Level Atlanta Center
09:43PM 34.6642 -85.5161 150° Southeast 432 497 24,000 -1,320 Level Atlanta Center
09:44PM 34.5628 -85.4439 148° Southeast 432 497 21,400 -2,520 Descending Atlanta Center
09:45PM 34.4653 -85.3692 149° Southeast 425 489 19,000 -2,580 Descending Atlanta Center
09:46PM 34.3661 -85.2969 142° Southeast 399 459 16,300 -2,640 Descending Atlanta Center
09:47PM 34.2853 -85.2206 142° Southeast 378 435 13,800 -1,620 Descending Atlanta Center
09:48PM 34.2089 -85.1489 140° Southeast 359 413 13,100 -360 Descending Atlanta Center
09:49PM 34.1406 -85.0803 134° Southeast 335 386 13,100  Level Atlanta Center
09:50PM 34.0847 -85.0094 133° Southeast 330 380 13,100 -480 Level Atlanta Center
09:51PM 34.0269 -84.9336 136° Southeast 314 361 12,200 -1,380 Descending Atlanta Center
09:52PM 33.9689 -84.8653 141° Southeast 301 346 10,400 -1,500 Descending Atlanta Center
09:53PM 33.9086 -84.8072 164° South 290 334 9,300 -840 Descending Atlanta Center
09:54PM 33.8358 -84.7817 163° South 274 315 8,800 -960 Descending Atlanta Center
09:55PM 33.7500 -84.7500 157° South 271 312 7,300 -1,140 Descending Atlanta TRACON
09:56PM 33.6833 -84.7167 129° Southeast 246 283 6,500 -1,080 Descending Atlanta TRACON
09:57PM 33.6500 -84.6667 90° East 231 266 5,200 -1,200 Descending Atlanta TRACON
09:58PM 33.6500 -84.6000 90° East 217 250 4,400 -1,260 Descending Atlanta TRACON
09:59PM 33.6500 -84.5500 90° East 177 204 3,000 -1,200 Descending Atlanta TRACON
10:00PM 33.6500 -84.5000 90° East 132 152 1,900 -900 Descending Atlanta TRACON
10:01PM 33.6500 -84.4500 90° East 133 153 1,200 -720 Descending Atlanta TRACON